sensor_id;sensor_type;location;lat;lon;timestamp;P1;durP1;ratioP1;P2;durP2;ratioP2
17595;SDS011;8916;47.086;15.920;2023-04-24T00:01:28;8.52;;;4.53;;
17595;SDS011;8916;47.086;15.920;2023-04-24T00:03:58;22.70;;;4.72;;
17595;SDS011;8916;47.086;15.920;2023-04-24T00:06:29;17.42;;;4.38;;
17595;SDS011;8916;47.086;15.920;2023-04-24T00:09:01;17.67;;;4.72;;
17595;SDS011;8916;47.086;15.920;2023-04-24T00:11:32;18.48;;;4.93;;
17595;SDS011;8916;47.086;15.920;2023-04-24T00:14:01;20.33;;;4.85;;
17595;SDS011;8916;47.086;15.920;2023-04-24T00:16:30;8.48;;;4.35;;
17595;SDS011;8916;47.086;15.920;2023-04-24T00:18:59;30.45;;;5.28;;
17595;SDS011;8916;47.086;15.920;2023-04-24T00:21:29;9.73;;;4.65;;
17595;SDS011;8916;47.086;15.920;2023-04-24T00:23:59;8.52;;;4.25;;
17595;SDS011;8916;47.086;15.920;2023-04-24T00:26:30;16.08;;;4.18;;
17595;SDS011;8916;47.086;15.920;2023-04-24T00:28:59;27.08;;;4.35;;
17595;SDS011;8916;47.086;15.920;2023-04-24T00:31:28;35.10;;;5.13;;
17595;SDS011;8916;47.086;15.920;2023-04-24T00:33:57;30.02;;;4.88;;
17595;SDS011;8916;47.086;15.920;2023-04-24T00:36:27;16.60;;;4.60;;
17595;SDS011;8916;47.086;15.920;2023-04-24T00:38:56;16.08;;;4.07;;
17595;SDS011;8916;47.086;15.920;2023-04-24T00:41:27;32.33;;;4.55;;
17595;SDS011;8916;47.086;15.920;2023-04-24T00:43:56;16.08;;;4.32;;
17595;SDS011;8916;47.086;15.920;2023-04-24T00:46:25;5.47;;;3.47;;
17595;SDS011;8916;47.086;15.920;2023-04-24T00:48:54;6.32;;;3.83;;
17595;SDS011;8916;47.086;15.920;2023-04-24T00:51:24;6.80;;;3.95;;
17595;SDS011;8916;47.086;15.920;2023-04-24T00:53:54;14.20;;;4.30;;
17595;SDS011;8916;47.086;15.920;2023-04-24T00:56:23;5.97;;;3.85;;
17595;SDS011;8916;47.086;15.920;2023-04-24T00:58:54;5.22;;;3.35;;
17595;SDS011;8916;47.086;15.920;2023-04-24T01:01:24;7.32;;;3.60;;
17595;SDS011;8916;47.086;15.920;2023-04-24T01:03:53;6.38;;;3.78;;
17595;SDS011;8916;47.086;15.920;2023-04-24T01:06:23;6.55;;;3.63;;
17595;SDS011;8916;47.086;15.920;2023-04-24T01:08:58;6.07;;;3.38;;
17595;SDS011;8916;47.086;15.920;2023-04-24T01:11:29;5.00;;;3.25;;
17595;SDS011;8916;47.086;15.920;2023-04-24T01:14:00;6.40;;;3.58;;
17595;SDS011;8916;47.086;15.920;2023-04-24T01:16:30;4.32;;;3.03;;
17595;SDS011;8916;47.086;15.920;2023-04-24T01:19:00;8.20;;;3.05;;
17595;SDS011;8916;47.086;15.920;2023-04-24T01:21:30;7.15;;;3.58;;
17595;SDS011;8916;47.086;15.920;2023-04-24T01:24:06;6.45;;;3.60;;
17595;SDS011;8916;47.086;15.920;2023-04-24T01:26:36;5.03;;;3.20;;
17595;SDS011;8916;47.086;15.920;2023-04-24T01:29:05;14.25;;;3.30;;
17595;SDS011;8916;47.086;15.920;2023-04-24T01:31:34;5.82;;;3.67;;
17595;SDS011;8916;47.086;15.920;2023-04-24T01:34:04;5.93;;;3.65;;
17595;SDS011;8916;47.086;15.920;2023-04-24T01:36:33;6.03;;;3.50;;
17595;SDS011;8916;47.086;15.920;2023-04-24T01:39:04;5.20;;;3.40;;
17595;SDS011;8916;47.086;15.920;2023-04-24T01:41:35;5.50;;;3.55;;
17595;SDS011;8916;47.086;15.920;2023-04-24T01:44:04;9.85;;;3.22;;
17595;SDS011;8916;47.086;15.920;2023-04-24T01:46:34;5.45;;;3.03;;
17595;SDS011;8916;47.086;15.920;2023-04-24T01:49:04;5.82;;;3.50;;
17595;SDS011;8916;47.086;15.920;2023-04-24T01:51:33;5.28;;;3.38;;
17595;SDS011;8916;47.086;15.920;2023-04-24T01:54:03;5.15;;;3.47;;
17595;SDS011;8916;47.086;15.920;2023-04-24T01:56:34;10.82;;;3.80;;
17595;SDS011;8916;47.086;15.920;2023-04-24T01:59:04;16.65;;;3.13;;
17595;SDS011;8916;47.086;15.920;2023-04-24T02:01:35;13.77;;;3.88;;
17595;SDS011;8916;47.086;15.920;2023-04-24T02:04:05;13.02;;;4.00;;
17595;SDS011;8916;47.086;15.920;2023-04-24T02:06:36;9.43;;;3.50;;
17595;SDS011;8916;47.086;15.920;2023-04-24T02:09:05;8.93;;;3.97;;
17595;SDS011;8916;47.086;15.920;2023-04-24T02:11:36;19.33;;;4.63;;
17595;SDS011;8916;47.086;15.920;2023-04-24T02:14:05;11.65;;;4.13;;
17595;SDS011;8916;47.086;15.920;2023-04-24T02:16:34;30.15;;;4.35;;
17595;SDS011;8916;47.086;15.920;2023-04-24T02:19:03;12.70;;;4.05;;
17595;SDS011;8916;47.086;15.920;2023-04-24T02:21:33;5.85;;;3.63;;
17595;SDS011;8916;47.086;15.920;2023-04-24T02:24:02;9.93;;;4.05;;
17595;SDS011;8916;47.086;15.920;2023-04-24T02:26:31;5.50;;;3.53;;
17595;SDS011;8916;47.086;15.920;2023-04-24T02:29:02;10.20;;;3.72;;
17595;SDS011;8916;47.086;15.920;2023-04-24T02:31:32;5.35;;;3.67;;
17595;SDS011;8916;47.086;15.920;2023-04-24T02:34:01;8.52;;;4.50;;
17595;SDS011;8916;47.086;15.920;2023-04-24T02:36:31;19.60;;;3.85;;
17595;SDS011;8916;47.086;15.920;2023-04-24T02:39:00;12.77;;;3.47;;
17595;SDS011;8916;47.086;15.920;2023-04-24T02:41:29;18.15;;;4.10;;
17595;SDS011;8916;47.086;15.920;2023-04-24T02:43:59;6.80;;;3.60;;
17595;SDS011;8916;47.086;15.920;2023-04-24T02:46:30;5.88;;;3.78;;
17595;SDS011;8916;47.086;15.920;2023-04-24T02:48:59;6.47;;;3.53;;
17595;SDS011;8916;47.086;15.920;2023-04-24T02:51:28;12.95;;;4.10;;
17595;SDS011;8916;47.086;15.920;2023-04-24T02:53:58;7.50;;;4.30;;
17595;SDS011;8916;47.086;15.920;2023-04-24T02:56:27;6.60;;;3.90;;
17595;SDS011;8916;47.086;15.920;2023-04-24T02:58:58;8.57;;;4.47;;
17595;SDS011;8916;47.086;15.920;2023-04-24T03:01:28;7.75;;;4.15;;
17595;SDS011;8916;47.086;15.920;2023-04-24T03:03:58;10.00;;;4.00;;
17595;SDS011;8916;47.086;15.920;2023-04-24T03:06:27;7.00;;;3.88;;
17595;SDS011;8916;47.086;15.920;2023-04-24T03:08:58;6.40;;;3.85;;
17595;SDS011;8916;47.086;15.920;2023-04-24T03:11:27;7.00;;;4.15;;
17595;SDS011;8916;47.086;15.920;2023-04-24T03:13:56;9.88;;;3.92;;
17595;SDS011;8916;47.086;15.920;2023-04-24T03:16:25;6.70;;;3.80;;
17595;SDS011;8916;47.086;15.920;2023-04-24T03:18:56;7.47;;;3.92;;
17595;SDS011;8916;47.086;15.920;2023-04-24T03:21:28;11.55;;;4.35;;
17595;SDS011;8916;47.086;15.920;2023-04-24T03:23:58;11.13;;;4.22;;
17595;SDS011;8916;47.086;15.920;2023-04-24T03:26:27;5.90;;;3.90;;
17595;SDS011;8916;47.086;15.920;2023-04-24T03:29:16;6.47;;;4.07;;
17595;SDS011;8916;47.086;15.920;2023-04-24T03:31:45;9.30;;;4.28;;
17595;SDS011;8916;47.086;15.920;2023-04-24T03:34:16;6.85;;;3.63;;
17595;SDS011;8916;47.086;15.920;2023-04-24T03:36:46;7.20;;;3.90;;
17595;SDS011;8916;47.086;15.920;2023-04-24T03:39:15;6.38;;;3.90;;
17595;SDS011;8916;47.086;15.920;2023-04-24T03:41:51;7.78;;;3.92;;
17595;SDS011;8916;47.086;15.920;2023-04-24T03:44:25;6.40;;;3.92;;
17595;SDS011;8916;47.086;15.920;2023-04-24T03:46:54;5.70;;;3.42;;
17595;SDS011;8916;47.086;15.920;2023-04-24T03:49:26;5.68;;;3.33;;
17595;SDS011;8916;47.086;15.920;2023-04-24T03:51:55;5.22;;;3.40;;
17595;SDS011;8916;47.086;15.920;2023-04-24T03:54:26;4.85;;;3.33;;
17595;SDS011;8916;47.086;15.920;2023-04-24T03:56:55;5.13;;;3.50;;
17595;SDS011;8916;47.086;15.920;2023-04-24T03:59:27;7.50;;;4.20;;
17595;SDS011;8916;47.086;15.920;2023-04-24T04:02:11;5.53;;;3.47;;
17595;SDS011;8916;47.086;15.920;2023-04-24T04:04:42;5.55;;;3.55;;
17595;SDS011;8916;47.086;15.920;2023-04-24T04:07:11;6.57;;;3.95;;
17595;SDS011;8916;47.086;15.920;2023-04-24T04:09:40;7.28;;;4.25;;
17595;SDS011;8916;47.086;15.920;2023-04-24T04:12:10;8.32;;;3.97;;
17595;SDS011;8916;47.086;15.920;2023-04-24T04:14:40;7.05;;;3.90;;
17595;SDS011;8916;47.086;15.920;2023-04-24T04:17:09;6.68;;;3.97;;
17595;SDS011;8916;47.086;15.920;2023-04-24T04:19:38;6.00;;;3.47;;
17595;SDS011;8916;47.086;15.920;2023-04-24T04:22:10;5.47;;;3.40;;
17595;SDS011;8916;47.086;15.920;2023-04-24T04:24:43;7.22;;;3.55;;
17595;SDS011;8916;47.086;15.920;2023-04-24T04:27:14;7.30;;;3.90;;
17595;SDS011;8916;47.086;15.920;2023-04-24T04:29:54;6.82;;;3.97;;
17595;SDS011;8916;47.086;15.920;2023-04-24T04:32:24;11.20;;;4.05;;
17595;SDS011;8916;47.086;15.920;2023-04-24T04:34:53;6.70;;;3.50;;
17595;SDS011;8916;47.086;15.920;2023-04-24T04:37:27;7.13;;;3.63;;
17595;SDS011;8916;47.086;15.920;2023-04-24T04:40:22;6.22;;;3.70;;
17595;SDS011;8916;47.086;15.920;2023-04-24T04:42:57;6.47;;;3.83;;
17595;SDS011;8916;47.086;15.920;2023-04-24T04:45:31;5.70;;;3.63;;
17595;SDS011;8916;47.086;15.920;2023-04-24T04:48:20;6.80;;;4.28;;
17595;SDS011;8916;47.086;15.920;2023-04-24T04:50:50;5.88;;;4.32;;
17595;SDS011;8916;47.086;15.920;2023-04-24T04:53:22;6.50;;;4.03;;
17595;SDS011;8916;47.086;15.920;2023-04-24T04:55:52;5.32;;;3.80;;
17595;SDS011;8916;47.086;15.920;2023-04-24T04:58:26;5.50;;;3.58;;
17595;SDS011;8916;47.086;15.920;2023-04-24T05:00:58;5.38;;;3.25;;
17595;SDS011;8916;47.086;15.920;2023-04-24T05:03:32;7.45;;;3.58;;
17595;SDS011;8916;47.086;15.920;2023-04-24T05:06:06;6.40;;;3.88;;
17595;SDS011;8916;47.086;15.920;2023-04-24T05:08:39;5.10;;;3.55;;
17595;SDS011;8916;47.086;15.920;2023-04-24T05:11:14;9.93;;;3.70;;
17595;SDS011;8916;47.086;15.920;2023-04-24T05:13:43;8.05;;;4.10;;
17595;SDS011;8916;47.086;15.920;2023-04-24T05:16:17;7.63;;;4.70;;
17595;SDS011;8916;47.086;15.920;2023-04-24T05:18:48;6.63;;;3.85;;
17595;SDS011;8916;47.086;15.920;2023-04-24T05:21:22;6.35;;;3.70;;
17595;SDS011;8916;47.086;15.920;2023-04-24T05:23:53;6.38;;;3.95;;
17595;SDS011;8916;47.086;15.920;2023-04-24T05:26:48;6.80;;;3.70;;
17595;SDS011;8916;47.086;15.920;2023-04-24T05:29:23;6.50;;;4.00;;
17595;SDS011;8916;47.086;15.920;2023-04-24T05:31:53;6.63;;;3.47;;
17595;SDS011;8916;47.086;15.920;2023-04-24T05:34:23;6.93;;;3.42;;
17595;SDS011;8916;47.086;15.920;2023-04-24T05:36:55;6.68;;;4.20;;
17595;SDS011;8916;47.086;15.920;2023-04-24T05:39:26;8.82;;;4.53;;
17595;SDS011;8916;47.086;15.920;2023-04-24T05:41:56;8.05;;;4.53;;
17595;SDS011;8916;47.086;15.920;2023-04-24T05:44:25;7.03;;;4.32;;
17595;SDS011;8916;47.086;15.920;2023-04-24T05:46:54;7.55;;;3.75;;
17595;SDS011;8916;47.086;15.920;2023-04-24T05:49:24;9.15;;;4.40;;
17595;SDS011;8916;47.086;15.920;2023-04-24T05:51:54;6.30;;;4.00;;
17595;SDS011;8916;47.086;15.920;2023-04-24T05:54:23;7.00;;;4.15;;
17595;SDS011;8916;47.086;15.920;2023-04-24T05:56:53;7.43;;;4.10;;
17595;SDS011;8916;47.086;15.920;2023-04-24T05:59:34;8.15;;;4.43;;
17595;SDS011;8916;47.086;15.920;2023-04-24T06:02:05;6.65;;;4.50;;
17595;SDS011;8916;47.086;15.920;2023-04-24T06:04:35;8.02;;;4.35;;
17595;SDS011;8916;47.086;15.920;2023-04-24T06:07:04;6.68;;;4.03;;
17595;SDS011;8916;47.086;15.920;2023-04-24T06:09:34;9.15;;;4.70;;
17595;SDS011;8916;47.086;15.920;2023-04-24T06:12:05;9.27;;;4.95;;
17595;SDS011;8916;47.086;15.920;2023-04-24T06:15:02;7.50;;;5.07;;
17595;SDS011;8916;47.086;15.920;2023-04-24T06:17:52;11.88;;;4.93;;
17595;SDS011;8916;47.086;15.920;2023-04-24T06:20:22;6.97;;;4.63;;
17595;SDS011;8916;47.086;15.920;2023-04-24T06:22:51;7.18;;;4.72;;
17595;SDS011;8916;47.086;15.920;2023-04-24T06:25:21;7.85;;;4.60;;
17595;SDS011;8916;47.086;15.920;2023-04-24T06:27:55;7.07;;;4.72;;
17595;SDS011;8916;47.086;15.920;2023-04-24T06:30:24;6.50;;;4.18;;
17595;SDS011;8916;47.086;15.920;2023-04-24T06:32:55;10.05;;;5.15;;
17595;SDS011;8916;47.086;15.920;2023-04-24T06:35:36;7.68;;;4.50;;
17595;SDS011;8916;47.086;15.920;2023-04-24T06:38:06;6.30;;;4.00;;
17595;SDS011;8916;47.086;15.920;2023-04-24T06:40:35;7.18;;;4.20;;
17595;SDS011;8916;47.086;15.920;2023-04-24T06:43:07;5.55;;;3.67;;
17595;SDS011;8916;47.086;15.920;2023-04-24T06:45:37;6.68;;;3.60;;
17595;SDS011;8916;47.086;15.920;2023-04-24T06:48:08;5.78;;;4.03;;
17595;SDS011;8916;47.086;15.920;2023-04-24T06:50:37;5.57;;;3.65;;
17595;SDS011;8916;47.086;15.920;2023-04-24T06:53:06;6.78;;;4.43;;
17595;SDS011;8916;47.086;15.920;2023-04-24T06:55:35;6.72;;;3.92;;
17595;SDS011;8916;47.086;15.920;2023-04-24T06:58:04;5.32;;;3.45;;
17595;SDS011;8916;47.086;15.920;2023-04-24T07:00:35;4.85;;;3.50;;
17595;SDS011;8916;47.086;15.920;2023-04-24T07:03:04;6.47;;;3.60;;
17595;SDS011;8916;47.086;15.920;2023-04-24T07:05:34;6.55;;;3.70;;
17595;SDS011;8916;47.086;15.920;2023-04-24T07:08:04;6.63;;;3.67;;
17595;SDS011;8916;47.086;15.920;2023-04-24T07:10:34;5.88;;;3.70;;
17595;SDS011;8916;47.086;15.920;2023-04-24T07:13:03;5.50;;;3.63;;
17595;SDS011;8916;47.086;15.920;2023-04-24T07:15:35;7.63;;;3.97;;
17595;SDS011;8916;47.086;15.920;2023-04-24T07:18:04;6.28;;;3.90;;
17595;SDS011;8916;47.086;15.920;2023-04-24T07:20:34;5.55;;;3.88;;
17595;SDS011;8916;47.086;15.920;2023-04-24T07:23:03;8.75;;;3.65;;
17595;SDS011;8916;47.086;15.920;2023-04-24T07:25:32;6.88;;;4.07;;
17595;SDS011;8916;47.086;15.920;2023-04-24T07:28:04;6.63;;;4.03;;
17595;SDS011;8916;47.086;15.920;2023-04-24T07:30:33;6.00;;;3.80;;
17595;SDS011;8916;47.086;15.920;2023-04-24T07:33:03;7.85;;;3.75;;
17595;SDS011;8916;47.086;15.920;2023-04-24T07:35:34;8.85;;;4.30;;
17595;SDS011;8916;47.086;15.920;2023-04-24T07:38:03;6.55;;;3.47;;
17595;SDS011;8916;47.086;15.920;2023-04-24T07:40:32;6.80;;;3.60;;
17595;SDS011;8916;47.086;15.920;2023-04-24T07:43:01;6.85;;;3.72;;
17595;SDS011;8916;47.086;15.920;2023-04-24T07:45:30;6.07;;;3.88;;
17595;SDS011;8916;47.086;15.920;2023-04-24T07:48:04;4.57;;;3.35;;
17595;SDS011;8916;47.086;15.920;2023-04-24T07:50:36;5.72;;;3.67;;
17595;SDS011;8916;47.086;15.920;2023-04-24T07:53:05;5.93;;;3.60;;
17595;SDS011;8916;47.086;15.920;2023-04-24T07:55:34;6.28;;;3.95;;
17595;SDS011;8916;47.086;15.920;2023-04-24T07:58:03;7.00;;;3.55;;
17595;SDS011;8916;47.086;15.920;2023-04-24T08:00:33;6.40;;;3.53;;
17595;SDS011;8916;47.086;15.920;2023-04-24T08:03:02;5.22;;;3.30;;
17595;SDS011;8916;47.086;15.920;2023-04-24T08:05:32;7.90;;;3.58;;
17595;SDS011;8916;47.086;15.920;2023-04-24T08:08:04;6.95;;;4.55;;
17595;SDS011;8916;47.086;15.920;2023-04-24T08:10:34;6.55;;;4.22;;
17595;SDS011;8916;47.086;15.920;2023-04-24T08:13:03;6.95;;;3.78;;
17595;SDS011;8916;47.086;15.920;2023-04-24T08:15:32;7.72;;;4.50;;
17595;SDS011;8916;47.086;15.920;2023-04-24T08:18:01;6.97;;;4.30;;
17595;SDS011;8916;47.086;15.920;2023-04-24T08:20:32;7.80;;;4.50;;
17595;SDS011;8916;47.086;15.920;2023-04-24T08:23:01;7.82;;;4.38;;
17595;SDS011;8916;47.086;15.920;2023-04-24T08:25:31;6.20;;;3.90;;
17595;SDS011;8916;47.086;15.920;2023-04-24T08:28:02;7.40;;;4.45;;
17595;SDS011;8916;47.086;15.920;2023-04-24T08:30:32;6.35;;;4.40;;
17595;SDS011;8916;47.086;15.920;2023-04-24T08:33:01;7.15;;;4.38;;
17595;SDS011;8916;47.086;15.920;2023-04-24T08:35:30;6.65;;;4.28;;
17595;SDS011;8916;47.086;15.920;2023-04-24T08:38:01;8.43;;;4.50;;
17595;SDS011;8916;47.086;15.920;2023-04-24T08:40:30;8.15;;;4.72;;
17595;SDS011;8916;47.086;15.920;2023-04-24T08:43:03;9.65;;;4.88;;
17595;SDS011;8916;47.086;15.920;2023-04-24T08:45:32;8.82;;;4.93;;
17595;SDS011;8916;47.086;15.920;2023-04-24T08:48:02;10.40;;;5.00;;
17595;SDS011;8916;47.086;15.920;2023-04-24T08:50:44;9.57;;;4.30;;
17595;SDS011;8916;47.086;15.920;2023-04-24T08:53:13;8.55;;;4.78;;
17595;SDS011;8916;47.086;15.920;2023-04-24T08:55:44;10.55;;;5.10;;
17595;SDS011;8916;47.086;15.920;2023-04-24T08:58:16;7.35;;;4.53;;
17595;SDS011;8916;47.086;15.920;2023-04-24T09:00:46;8.50;;;4.80;;
17595;SDS011;8916;47.086;15.920;2023-04-24T09:03:15;7.65;;;4.57;;
17595;SDS011;8916;47.086;15.920;2023-04-24T09:05:47;7.28;;;4.03;;
17595;SDS011;8916;47.086;15.920;2023-04-24T09:08:18;7.57;;;4.30;;
17595;SDS011;8916;47.086;15.920;2023-04-24T09:10:48;8.18;;;4.95;;
17595;SDS011;8916;47.086;15.920;2023-04-24T09:13:17;9.02;;;5.32;;
17595;SDS011;8916;47.086;15.920;2023-04-24T09:15:48;11.55;;;4.97;;
17595;SDS011;8916;47.086;15.920;2023-04-24T09:18:17;9.20;;;4.93;;
17595;SDS011;8916;47.086;15.920;2023-04-24T09:21:00;8.32;;;5.13;;
17595;SDS011;8916;47.086;15.920;2023-04-24T09:23:31;15.07;;;6.03;;
17595;SDS011;8916;47.086;15.920;2023-04-24T09:26:02;12.00;;;5.93;;
17595;SDS011;8916;47.086;15.920;2023-04-24T09:28:35;9.50;;;5.40;;
17595;SDS011;8916;47.086;15.920;2023-04-24T09:31:07;9.23;;;5.50;;
17595;SDS011;8916;47.086;15.920;2023-04-24T09:33:38;13.18;;;5.60;;
17595;SDS011;8916;47.086;15.920;2023-04-24T09:36:09;9.85;;;5.50;;
17595;SDS011;8916;47.086;15.920;2023-04-24T09:38:38;10.63;;;5.47;;
17595;SDS011;8916;47.086;15.920;2023-04-24T09:41:08;8.88;;;5.18;;
17595;SDS011;8916;47.086;15.920;2023-04-24T09:43:41;9.82;;;5.35;;
17595;SDS011;8916;47.086;15.920;2023-04-24T09:46:10;10.95;;;6.00;;
17595;SDS011;8916;47.086;15.920;2023-04-24T09:48:40;8.35;;;5.13;;
17595;SDS011;8916;47.086;15.920;2023-04-24T09:51:11;9.60;;;5.40;;
17595;SDS011;8916;47.086;15.920;2023-04-24T09:53:45;12.25;;;5.10;;
17595;SDS011;8916;47.086;15.920;2023-04-24T09:56:22;10.68;;;5.18;;
17595;SDS011;8916;47.086;15.920;2023-04-24T09:58:54;9.35;;;5.07;;
17595;SDS011;8916;47.086;15.920;2023-04-24T10:01:32;14.00;;;5.43;;
17595;SDS011;8916;47.086;15.920;2023-04-24T10:04:02;8.80;;;5.18;;
17595;SDS011;8916;47.086;15.920;2023-04-24T10:06:35;9.18;;;5.30;;
17595;SDS011;8916;47.086;15.920;2023-04-24T10:09:04;10.45;;;5.22;;
17595;SDS011;8916;47.086;15.920;2023-04-24T10:11:34;11.77;;;5.50;;
17595;SDS011;8916;47.086;15.920;2023-04-24T10:14:03;10.10;;;5.45;;
17595;SDS011;8916;47.086;15.920;2023-04-24T10:16:33;10.43;;;5.85;;
17595;SDS011;8916;47.086;15.920;2023-04-24T10:19:03;11.20;;;5.47;;
17595;SDS011;8916;47.086;15.920;2023-04-24T10:21:32;12.15;;;4.93;;
17595;SDS011;8916;47.086;15.920;2023-04-24T10:24:05;9.63;;;5.03;;
17595;SDS011;8916;47.086;15.920;2023-04-24T10:26:35;9.35;;;4.80;;
17595;SDS011;8916;47.086;15.920;2023-04-24T10:29:04;6.38;;;3.83;;
17595;SDS011;8916;47.086;15.920;2023-04-24T10:31:37;6.35;;;3.40;;
17595;SDS011;8916;47.086;15.920;2023-04-24T10:34:07;5.95;;;3.58;;
17595;SDS011;8916;47.086;15.920;2023-04-24T10:36:41;6.80;;;3.78;;
17595;SDS011;8916;47.086;15.920;2023-04-24T10:39:14;4.93;;;3.00;;
17595;SDS011;8916;47.086;15.920;2023-04-24T10:41:45;5.03;;;3.05;;
17595;SDS011;8916;47.086;15.920;2023-04-24T10:44:16;4.20;;;2.80;;
17595;SDS011;8916;47.086;15.920;2023-04-24T10:46:46;4.95;;;3.10;;
17595;SDS011;8916;47.086;15.920;2023-04-24T10:49:27;4.35;;;2.83;;
17595;SDS011;8916;47.086;15.920;2023-04-24T10:52:01;5.55;;;3.10;;
17595;SDS011;8916;47.086;15.920;2023-04-24T10:54:36;5.57;;;3.45;;
17595;SDS011;8916;47.086;15.920;2023-04-24T10:57:25;4.20;;;2.83;;
17595;SDS011;8916;47.086;15.920;2023-04-24T11:00:16;5.45;;;3.38;;
17595;SDS011;8916;47.086;15.920;2023-04-24T11:02:49;5.50;;;2.97;;
17595;SDS011;8916;47.086;15.920;2023-04-24T11:05:21;4.72;;;2.78;;
17595;SDS011;8916;47.086;15.920;2023-04-24T11:10:43;4.85;;;3.05;;
17595;SDS011;8916;47.086;15.920;2023-04-24T11:13:16;3.53;;;2.42;;
17595;SDS011;8916;47.086;15.920;2023-04-24T11:18:41;3.95;;;1.95;;
17595;SDS011;8916;47.086;15.920;2023-04-24T11:21:15;3.55;;;2.30;;
17595;SDS011;8916;47.086;15.920;2023-04-24T11:23:47;2.72;;;2.00;;
17595;SDS011;8916;47.086;15.920;2023-04-24T11:26:21;5.30;;;2.13;;
17595;SDS011;8916;47.086;15.920;2023-04-24T11:28:51;2.72;;;1.77;;
17595;SDS011;8916;47.086;15.920;2023-04-24T11:34:10;3.55;;;2.00;;
17595;SDS011;8916;47.086;15.920;2023-04-24T11:36:42;2.78;;;1.45;;
17595;SDS011;8916;47.086;15.920;2023-04-24T11:39:14;1.95;;;1.63;;
17595;SDS011;8916;47.086;15.920;2023-04-24T11:41:43;4.63;;;1.83;;
17595;SDS011;8916;47.086;15.920;2023-04-24T11:44:12;1.92;;;1.48;;
17595;SDS011;8916;47.086;15.920;2023-04-24T11:46:43;4.05;;;1.45;;
17595;SDS011;8916;47.086;15.920;2023-04-24T11:49:12;2.53;;;1.48;;
17595;SDS011;8916;47.086;15.920;2023-04-24T11:51:41;1.15;;;1.00;;
17595;SDS011;8916;47.086;15.920;2023-04-24T11:54:21;1.27;;;0.90;;
17595;SDS011;8916;47.086;15.920;2023-04-24T11:56:50;1.77;;;1.10;;
17595;SDS011;8916;47.086;15.920;2023-04-24T11:59:19;1.38;;;0.90;;
17595;SDS011;8916;47.086;15.920;2023-04-24T12:01:49;1.63;;;0.70;;
17595;SDS011;8916;47.086;15.920;2023-04-24T12:04:18;1.42;;;0.60;;
17595;SDS011;8916;47.086;15.920;2023-04-24T12:09:44;1.05;;;0.90;;
17595;SDS011;8916;47.086;15.920;2023-04-24T12:12:18;4.43;;;0.88;;
17595;SDS011;8916;47.086;15.920;2023-04-24T12:14:48;0.60;;;0.43;;
17595;SDS011;8916;47.086;15.920;2023-04-24T12:17:23;1.00;;;0.90;;
17595;SDS011;8916;47.086;15.920;2023-04-24T12:19:59;0.85;;;0.80;;
17595;SDS011;8916;47.086;15.920;2023-04-24T12:22:42;1.25;;;0.82;;
17595;SDS011;8916;47.086;15.920;2023-04-24T12:25:15;1.00;;;0.80;;
17595;SDS011;8916;47.086;15.920;2023-04-24T12:27:46;1.50;;;0.70;;
17595;SDS011;8916;47.086;15.920;2023-04-24T12:30:21;1.17;;;0.98;;
17595;SDS011;8916;47.086;15.920;2023-04-24T12:32:56;7.90;;;1.05;;
17595;SDS011;8916;47.086;15.920;2023-04-24T12:35:28;3.92;;;2.30;;
17595;SDS011;8916;47.086;15.920;2023-04-24T12:38:07;2.42;;;1.30;;
17595;SDS011;8916;47.086;15.920;2023-04-24T12:40:39;6.37;;;2.73;;
17595;SDS011;8916;47.086;15.920;2023-04-24T12:43:15;0.88;;;0.75;;
17595;SDS011;8916;47.086;15.920;2023-04-24T12:45:47;1.90;;;0.70;;
17595;SDS011;8916;47.086;15.920;2023-04-24T12:48:16;7.80;;;0.80;;
17595;SDS011;8916;47.086;15.920;2023-04-24T12:50:47;0.77;;;0.50;;
17595;SDS011;8916;47.086;15.920;2023-04-24T12:53:17;1.10;;;0.80;;
17595;SDS011;8916;47.086;15.920;2023-04-24T12:55:47;1.08;;;0.60;;
17595;SDS011;8916;47.086;15.920;2023-04-24T12:58:19;1.08;;;0.57;;
17595;SDS011;8916;47.086;15.920;2023-04-24T13:00:49;3.17;;;0.55;;
17595;SDS011;8916;47.086;15.920;2023-04-24T13:03:18;0.95;;;0.50;;
17595;SDS011;8916;47.086;15.920;2023-04-24T13:05:48;2.67;;;0.50;;
17595;SDS011;8916;47.086;15.920;2023-04-24T13:08:17;1.23;;;0.98;;
17595;SDS011;8916;47.086;15.920;2023-04-24T13:10:47;1.38;;;0.70;;
17595;SDS011;8916;47.086;15.920;2023-04-24T13:13:18;1.63;;;0.90;;
17595;SDS011;8916;47.086;15.920;2023-04-24T13:15:47;1.17;;;0.82;;
17595;SDS011;8916;47.086;15.920;2023-04-24T13:18:16;0.73;;;0.40;;
17595;SDS011;8916;47.086;15.920;2023-04-24T13:20:45;0.93;;;0.50;;
17595;SDS011;8916;47.086;15.920;2023-04-24T13:23:14;0.50;;;0.50;;
17595;SDS011;8916;47.086;15.920;2023-04-24T13:25:44;1.73;;;0.57;;
17595;SDS011;8916;47.086;15.920;2023-04-24T13:28:15;1.60;;;0.52;;
17595;SDS011;8916;47.086;15.920;2023-04-24T13:30:44;1.20;;;0.60;;
17595;SDS011;8916;47.086;15.920;2023-04-24T13:33:18;0.60;;;0.40;;
17595;SDS011;8916;47.086;15.920;2023-04-24T13:35:47;1.08;;;0.43;;
17595;SDS011;8916;47.086;15.920;2023-04-24T13:38:16;0.52;;;0.50;;
17595;SDS011;8916;47.086;15.920;2023-04-24T13:40:48;0.98;;;0.88;;
17595;SDS011;8916;47.086;15.920;2023-04-24T13:43:19;0.60;;;0.50;;
17595;SDS011;8916;47.086;15.920;2023-04-24T13:45:48;4.07;;;0.65;;
17595;SDS011;8916;47.086;15.920;2023-04-24T13:48:17;1.75;;;1.10;;
17595;SDS011;8916;47.086;15.920;2023-04-24T13:50:46;1.73;;;0.75;;
17595;SDS011;8916;47.086;15.920;2023-04-24T13:53:17;1.05;;;0.73;;
17595;SDS011;8916;47.086;15.920;2023-04-24T13:55:46;1.90;;;1.13;;
17595;SDS011;8916;47.086;15.920;2023-04-24T13:58:15;0.80;;;0.68;;
17595;SDS011;8916;47.086;15.920;2023-04-24T14:00:45;1.50;;;1.30;;
17595;SDS011;8916;47.086;15.920;2023-04-24T14:03:14;1.95;;;0.98;;
17595;SDS011;8916;47.086;15.920;2023-04-24T14:05:44;1.00;;;0.63;;
17595;SDS011;8916;47.086;15.920;2023-04-24T14:08:13;1.60;;;1.00;;
17595;SDS011;8916;47.086;15.920;2023-04-24T14:10:42;6.53;;;1.67;;
17595;SDS011;8916;47.086;15.920;2023-04-24T14:13:11;3.33;;;0.77;;
17595;SDS011;8916;47.086;15.920;2023-04-24T14:15:42;1.42;;;0.88;;
17595;SDS011;8916;47.086;15.920;2023-04-24T14:18:13;1.77;;;1.10;;
17595;SDS011;8916;47.086;15.920;2023-04-24T14:20:42;2.40;;;1.40;;
17595;SDS011;8916;47.086;15.920;2023-04-24T14:23:11;1.50;;;0.90;;
17595;SDS011;8916;47.086;15.920;2023-04-24T14:25:42;1.50;;;1.05;;
17595;SDS011;8916;47.086;15.920;2023-04-24T14:28:11;2.72;;;1.10;;
17595;SDS011;8916;47.086;15.920;2023-04-24T14:30:40;2.70;;;1.63;;
17595;SDS011;8916;47.086;15.920;2023-04-24T14:33:10;0.80;;;0.77;;
17595;SDS011;8916;47.086;15.920;2023-04-24T14:35:41;3.13;;;1.25;;
17595;SDS011;8916;47.086;15.920;2023-04-24T14:38:11;2.33;;;1.50;;
17595;SDS011;8916;47.086;15.920;2023-04-24T14:40:40;7.43;;;1.98;;
17595;SDS011;8916;47.086;15.920;2023-04-24T14:43:12;1.40;;;1.00;;
17595;SDS011;8916;47.086;15.920;2023-04-24T14:45:41;3.42;;;1.52;;
17595;SDS011;8916;47.086;15.920;2023-04-24T14:48:11;3.22;;;1.75;;
17595;SDS011;8916;47.086;15.920;2023-04-24T14:50:41;1.75;;;1.45;;
17595;SDS011;8916;47.086;15.920;2023-04-24T14:53:10;3.25;;;1.48;;
17595;SDS011;8916;47.086;15.920;2023-04-24T14:55:40;2.42;;;1.60;;
17595;SDS011;8916;47.086;15.920;2023-04-24T14:58:09;1.40;;;1.20;;
17595;SDS011;8916;47.086;15.920;2023-04-24T15:00:38;3.67;;;2.20;;
17595;SDS011;8916;47.086;15.920;2023-04-24T15:03:08;1.70;;;1.45;;
17595;SDS011;8916;47.086;15.920;2023-04-24T15:05:39;3.13;;;1.70;;
17595;SDS011;8916;47.086;15.920;2023-04-24T15:08:08;2.38;;;1.40;;
17595;SDS011;8916;47.086;15.920;2023-04-24T15:10:37;2.92;;;1.60;;
17595;SDS011;8916;47.086;15.920;2023-04-24T15:13:07;3.38;;;2.08;;
17595;SDS011;8916;47.086;15.920;2023-04-24T15:15:36;2.13;;;1.45;;
17595;SDS011;8916;47.086;15.920;2023-04-24T15:18:07;2.33;;;1.60;;
17595;SDS011;8916;47.086;15.920;2023-04-24T15:20:40;2.60;;;1.67;;